sensor_id;sensor_type;location;lat;lon;timestamp;P1;durP1;ratioP1;P2;durP2;ratioP2
24619;SDS011;12763;55.802;37.404;2023-04-24T00:00:05;18.77;;;6.93;;
24619;SDS011;12763;55.802;37.404;2023-04-24T00:02:32;13.27;;;7.07;;
24619;SDS011;12763;55.802;37.404;2023-04-24T00:04:58;13.82;;;7.68;;
24619;SDS011;12763;55.802;37.404;2023-04-24T00:07:29;17.17;;;7.65;;
24619;SDS011;12763;55.802;37.404;2023-04-24T00:09:55;20.15;;;7.97;;
24619;SDS011;12763;55.802;37.404;2023-04-24T00:12:21;19.05;;;7.70;;
24619;SDS011;12763;55.802;37.404;2023-04-24T00:14:47;16.27;;;7.40;;
24619;SDS011;12763;55.802;37.404;2023-04-24T00:17:14;22.58;;;8.55;;
24619;SDS011;12763;55.802;37.404;2023-04-24T00:19:40;16.60;;;7.68;;
24619;SDS011;12763;55.802;37.404;2023-04-24T00:22:06;17.77;;;7.55;;
24619;SDS011;12763;55.802;37.404;2023-04-24T00:24:33;27.58;;;8.68;;
24619;SDS011;12763;55.802;37.404;2023-04-24T00:26:58;22.10;;;9.07;;
24619;SDS011;12763;55.802;37.404;2023-04-24T00:29:26;22.67;;;7.95;;
24619;SDS011;12763;55.802;37.404;2023-04-24T00:31:53;19.50;;;7.90;;
24619;SDS011;12763;55.802;37.404;2023-04-24T00:34:19;26.25;;;7.93;;
24619;SDS011;12763;55.802;37.404;2023-04-24T00:36:45;23.83;;;7.63;;
24619;SDS011;12763;55.802;37.404;2023-04-24T00:39:11;14.60;;;8.07;;
24619;SDS011;12763;55.802;37.404;2023-04-24T00:41:37;25.55;;;8.80;;
24619;SDS011;12763;55.802;37.404;2023-04-24T00:44:03;18.48;;;8.50;;
24619;SDS011;12763;55.802;37.404;2023-04-24T00:46:29;21.38;;;8.88;;
24619;SDS011;12763;55.802;37.404;2023-04-24T00:48:56;14.93;;;6.75;;
24619;SDS011;12763;55.802;37.404;2023-04-24T00:51:22;21.88;;;8.18;;
24619;SDS011;12763;55.802;37.404;2023-04-24T00:53:49;23.00;;;9.07;;
24619;SDS011;12763;55.802;37.404;2023-04-24T00:56:16;25.85;;;8.45;;
24619;SDS011;12763;55.802;37.404;2023-04-24T00:58:42;21.02;;;7.85;;
24619;SDS011;12763;55.802;37.404;2023-04-24T01:01:09;14.85;;;7.45;;
24619;SDS011;12763;55.802;37.404;2023-04-24T01:03:37;18.15;;;8.25;;
24619;SDS011;12763;55.802;37.404;2023-04-24T01:06:03;23.70;;;9.40;;
24619;SDS011;12763;55.802;37.404;2023-04-24T01:08:30;19.83;;;9.27;;
24619;SDS011;12763;55.802;37.404;2023-04-24T01:10:57;19.00;;;9.25;;
24619;SDS011;12763;55.802;37.404;2023-04-24T01:13:23;20.90;;;8.05;;
24619;SDS011;12763;55.802;37.404;2023-04-24T01:15:49;17.55;;;7.97;;
24619;SDS011;12763;55.802;37.404;2023-04-24T01:18:15;23.48;;;8.57;;
24619;SDS011;12763;55.802;37.404;2023-04-24T01:20:41;15.70;;;8.15;;
24619;SDS011;12763;55.802;37.404;2023-04-24T01:23:09;24.38;;;9.32;;
24619;SDS011;12763;55.802;37.404;2023-04-24T01:25:36;14.77;;;7.85;;
24619;SDS011;12763;55.802;37.404;2023-04-24T01:28:02;14.95;;;8.57;;
24619;SDS011;12763;55.802;37.404;2023-04-24T01:30:31;19.63;;;9.80;;
24619;SDS011;12763;55.802;37.404;2023-04-24T01:32:57;15.43;;;8.35;;
24619;SDS011;12763;55.802;37.404;2023-04-24T01:35:24;20.90;;;9.25;;
24619;SDS011;12763;55.802;37.404;2023-04-24T01:37:50;18.77;;;9.13;;
24619;SDS011;12763;55.802;37.404;2023-04-24T01:40:16;23.25;;;9.23;;
24619;SDS011;12763;55.802;37.404;2023-04-24T01:42:42;15.43;;;8.60;;
24619;SDS011;12763;55.802;37.404;2023-04-24T01:45:08;15.75;;;9.00;;
24619;SDS011;12763;55.802;37.404;2023-04-24T01:47:36;16.75;;;9.35;;
24619;SDS011;12763;55.802;37.404;2023-04-24T01:50:04;23.27;;;9.38;;
24619;SDS011;12763;55.802;37.404;2023-04-24T01:52:31;19.15;;;9.73;;
24619;SDS011;12763;55.802;37.404;2023-04-24T01:54:59;16.58;;;8.43;;
24619;SDS011;12763;55.802;37.404;2023-04-24T01:57:25;17.17;;;8.70;;
24619;SDS011;12763;55.802;37.404;2023-04-24T01:59:51;16.45;;;9.50;;
24619;SDS011;12763;55.802;37.404;2023-04-24T02:02:17;16.55;;;9.32;;
24619;SDS011;12763;55.802;37.404;2023-04-24T02:04:43;19.60;;;8.98;;
24619;SDS011;12763;55.802;37.404;2023-04-24T02:07:09;16.38;;;8.90;;
24619;SDS011;12763;55.802;37.404;2023-04-24T02:09:35;21.40;;;10.55;;
24619;SDS011;12763;55.802;37.404;2023-04-24T02:12:01;22.05;;;9.95;;
24619;SDS011;12763;55.802;37.404;2023-04-24T02:14:27;19.80;;;10.52;;
24619;SDS011;12763;55.802;37.404;2023-04-24T02:16:53;21.58;;;10.27;;
24619;SDS011;12763;55.802;37.404;2023-04-24T02:19:19;22.38;;;9.50;;
24619;SDS011;12763;55.802;37.404;2023-04-24T02:21:45;18.30;;;9.77;;
24619;SDS011;12763;55.802;37.404;2023-04-24T02:24:11;20.67;;;9.73;;
24619;SDS011;12763;55.802;37.404;2023-04-24T02:26:37;20.92;;;9.80;;
24619;SDS011;12763;55.802;37.404;2023-04-24T02:29:03;16.20;;;9.80;;
24619;SDS011;12763;55.802;37.404;2023-04-24T02:31:29;24.02;;;10.93;;
24619;SDS011;12763;55.802;37.404;2023-04-24T02:33:54;18.88;;;10.10;;
24619;SDS011;12763;55.802;37.404;2023-04-24T02:36:20;16.85;;;8.55;;
24619;SDS011;12763;55.802;37.404;2023-04-24T02:38:47;22.48;;;9.05;;
24619;SDS011;12763;55.802;37.404;2023-04-24T02:41:13;21.17;;;10.10;;
24619;SDS011;12763;55.802;37.404;2023-04-24T02:43:42;14.93;;;9.07;;
24619;SDS011;12763;55.802;37.404;2023-04-24T02:46:07;15.45;;;9.88;;
24619;SDS011;12763;55.802;37.404;2023-04-24T02:48:33;20.30;;;9.60;;
24619;SDS011;12763;55.802;37.404;2023-04-24T02:50:59;23.00;;;10.10;;
24619;SDS011;12763;55.802;37.404;2023-04-24T02:53:25;19.38;;;9.60;;
24619;SDS011;12763;55.802;37.404;2023-04-24T02:55:51;15.95;;;9.25;;
24619;SDS011;12763;55.802;37.404;2023-04-24T02:58:16;19.80;;;9.98;;
24619;SDS011;12763;55.802;37.404;2023-04-24T03:00:46;21.65;;;9.77;;
24619;SDS011;12763;55.802;37.404;2023-04-24T03:03:12;24.00;;;11.55;;
24619;SDS011;12763;55.802;37.404;2023-04-24T03:05:39;19.88;;;10.20;;
24619;SDS011;12763;55.802;37.404;2023-04-24T03:08:05;15.73;;;9.77;;
24619;SDS011;12763;55.802;37.404;2023-04-24T03:10:31;18.23;;;9.10;;
24619;SDS011;12763;55.802;37.404;2023-04-24T03:12:57;18.75;;;9.13;;
24619;SDS011;12763;55.802;37.404;2023-04-24T03:15:23;19.80;;;10.25;;
24619;SDS011;12763;55.802;37.404;2023-04-24T03:17:49;20.13;;;9.90;;
24619;SDS011;12763;55.802;37.404;2023-04-24T03:20:15;18.83;;;9.18;;
24619;SDS011;12763;55.802;37.404;2023-04-24T03:22:42;24.88;;;9.52;;
24619;SDS011;12763;55.802;37.404;2023-04-24T03:25:08;23.70;;;9.93;;
24619;SDS011;12763;55.802;37.404;2023-04-24T03:27:35;17.42;;;9.63;;
24619;SDS011;12763;55.802;37.404;2023-04-24T03:30:08;19.70;;;10.68;;
24619;SDS011;12763;55.802;37.404;2023-04-24T03:32:43;16.40;;;9.20;;
24619;SDS011;12763;55.802;37.404;2023-04-24T03:35:12;17.65;;;9.70;;
24619;SDS011;12763;55.802;37.404;2023-04-24T03:37:38;18.80;;;9.90;;
24619;SDS011;12763;55.802;37.404;2023-04-24T03:40:24;18.02;;;9.95;;
24619;SDS011;12763;55.802;37.404;2023-04-24T03:42:50;14.52;;;10.02;;
24619;SDS011;12763;55.802;37.404;2023-04-24T03:45:17;24.65;;;10.85;;
24619;SDS011;12763;55.802;37.404;2023-04-24T03:47:47;17.75;;;10.32;;
24619;SDS011;12763;55.802;37.404;2023-04-24T03:50:13;20.05;;;10.10;;
24619;SDS011;12763;55.802;37.404;2023-04-24T03:52:40;18.13;;;10.23;;
24619;SDS011;12763;55.802;37.404;2023-04-24T03:55:06;19.10;;;10.20;;
24619;SDS011;12763;55.802;37.404;2023-04-24T03:57:37;17.25;;;9.95;;
24619;SDS011;12763;55.802;37.404;2023-04-24T04:00:12;19.13;;;9.82;;
24619;SDS011;12763;55.802;37.404;2023-04-24T04:02:47;25.20;;;10.98;;
24619;SDS011;12763;55.802;37.404;2023-04-24T04:05:13;20.05;;;10.10;;
24619;SDS011;12763;55.802;37.404;2023-04-24T04:07:40;25.90;;;10.60;;
24619;SDS011;12763;55.802;37.404;2023-04-24T04:10:07;16.08;;;9.82;;
24619;SDS011;12763;55.802;37.404;2023-04-24T04:12:35;22.25;;;10.30;;
24619;SDS011;12763;55.802;37.404;2023-04-24T04:15:01;21.30;;;10.95;;
24619;SDS011;12763;55.802;37.404;2023-04-24T04:17:29;18.67;;;11.13;;
24619;SDS011;12763;55.802;37.404;2023-04-24T04:19:56;21.08;;;10.32;;
24619;SDS011;12763;55.802;37.404;2023-04-24T04:22:23;19.20;;;11.25;;
24619;SDS011;12763;55.802;37.404;2023-04-24T04:24:50;24.60;;;10.50;;
24619;SDS011;12763;55.802;37.404;2023-04-24T04:27:20;27.15;;;10.60;;
24619;SDS011;12763;55.802;37.404;2023-04-24T04:30:00;27.35;;;11.82;;
24619;SDS011;12763;55.802;37.404;2023-04-24T04:32:32;24.30;;;11.57;;
24619;SDS011;12763;55.802;37.404;2023-04-24T04:35:02;21.40;;;10.93;;
24619;SDS011;12763;55.802;37.404;2023-04-24T04:37:31;22.10;;;10.43;;
24619;SDS011;12763;55.802;37.404;2023-04-24T04:40:26;21.70;;;9.77;;
24619;SDS011;12763;55.802;37.404;2023-04-24T04:42:59;27.92;;;10.13;;
24619;SDS011;12763;55.802;37.404;2023-04-24T04:45:29;20.20;;;9.60;;
24619;SDS011;12763;55.802;37.404;2023-04-24T04:48:28;18.02;;;9.95;;
24619;SDS011;12763;55.802;37.404;2023-04-24T04:50:57;18.17;;;10.55;;
24619;SDS011;12763;55.802;37.404;2023-04-24T04:53:24;23.20;;;10.70;;
24619;SDS011;12763;55.802;37.404;2023-04-24T04:55:50;15.30;;;9.07;;
24619;SDS011;12763;55.802;37.404;2023-04-24T04:58:18;20.10;;;9.25;;
24619;SDS011;12763;55.802;37.404;2023-04-24T05:00:45;18.80;;;9.32;;
24619;SDS011;12763;55.802;37.404;2023-04-24T05:03:24;19.08;;;10.82;;
24619;SDS011;12763;55.802;37.404;2023-04-24T05:05:57;20.30;;;10.27;;
24619;SDS011;12763;55.802;37.404;2023-04-24T05:08:23;28.13;;;10.30;;
24619;SDS011;12763;55.802;37.404;2023-04-24T05:10:49;16.85;;;9.98;;
24619;SDS011;12763;55.802;37.404;2023-04-24T05:13:15;24.52;;;10.88;;
24619;SDS011;12763;55.802;37.404;2023-04-24T05:15:41;18.45;;;9.55;;
24619;SDS011;12763;55.802;37.404;2023-04-24T05:18:08;21.17;;;10.35;;
24619;SDS011;12763;55.802;37.404;2023-04-24T05:20:33;21.40;;;9.90;;
24619;SDS011;12763;55.802;37.404;2023-04-24T05:22:59;16.58;;;9.05;;
24619;SDS011;12763;55.802;37.404;2023-04-24T05:25:27;18.38;;;10.02;;
24619;SDS011;12763;55.802;37.404;2023-04-24T05:27:57;17.92;;;9.60;;
24619;SDS011;12763;55.802;37.404;2023-04-24T05:30:23;25.63;;;10.75;;
24619;SDS011;12763;55.802;37.404;2023-04-24T05:32:49;17.92;;;8.38;;
24619;SDS011;12763;55.802;37.404;2023-04-24T05:35:15;20.50;;;9.10;;
24619;SDS011;12763;55.802;37.404;2023-04-24T05:37:41;18.52;;;8.60;;
24619;SDS011;12763;55.802;37.404;2023-04-24T05:40:08;18.40;;;8.02;;
24619;SDS011;12763;55.802;37.404;2023-04-24T05:42:34;12.73;;;8.30;;
24619;SDS011;12763;55.802;37.404;2023-04-24T05:45:00;20.50;;;7.43;;
24619;SDS011;12763;55.802;37.404;2023-04-24T05:47:26;20.10;;;8.13;;
24619;SDS011;12763;55.802;37.404;2023-04-24T05:49:53;15.35;;;8.32;;
24619;SDS011;12763;55.802;37.404;2023-04-24T05:52:19;16.80;;;8.85;;
24619;SDS011;12763;55.802;37.404;2023-04-24T05:54:46;17.83;;;8.63;;
24619;SDS011;12763;55.802;37.404;2023-04-24T05:57:17;16.60;;;7.63;;
24619;SDS011;12763;55.802;37.404;2023-04-24T05:59:56;28.13;;;9.15;;
24619;SDS011;12763;55.802;37.404;2023-04-24T06:02:22;24.35;;;8.90;;
24619;SDS011;12763;55.802;37.404;2023-04-24T06:04:48;12.23;;;8.43;;
24619;SDS011;12763;55.802;37.404;2023-04-24T06:07:14;22.08;;;10.30;;
24619;SDS011;12763;55.802;37.404;2023-04-24T06:09:42;32.75;;;9.38;;
24619;SDS011;12763;55.802;37.404;2023-04-24T06:12:08;23.00;;;10.00;;
24619;SDS011;12763;55.802;37.404;2023-04-24T06:14:54;24.40;;;9.20;;
24619;SDS011;12763;55.802;37.404;2023-04-24T06:17:26;17.30;;;7.50;;
24619;SDS011;12763;55.802;37.404;2023-04-24T06:19:52;27.23;;;9.73;;
24619;SDS011;12763;55.802;37.404;2023-04-24T06:22:20;16.92;;;9.15;;
24619;SDS011;12763;55.802;37.404;2023-04-24T06:24:46;23.90;;;10.70;;
24619;SDS011;12763;55.802;37.404;2023-04-24T06:27:14;25.13;;;9.85;;
24619;SDS011;12763;55.802;37.404;2023-04-24T06:29:40;20.45;;;9.10;;
24619;SDS011;12763;55.802;37.404;2023-04-24T06:32:06;18.40;;;9.30;;
24619;SDS011;12763;55.802;37.404;2023-04-24T06:34:31;19.52;;;8.80;;
24619;SDS011;12763;55.802;37.404;2023-04-24T06:36:59;14.52;;;7.13;;
24619;SDS011;12763;55.802;37.404;2023-04-24T06:39:25;20.00;;;9.57;;
24619;SDS011;12763;55.802;37.404;2023-04-24T06:41:51;23.80;;;10.57;;
24619;SDS011;12763;55.802;37.404;2023-04-24T06:44:20;19.58;;;9.55;;
24619;SDS011;12763;55.802;37.404;2023-04-24T06:46:46;13.05;;;8.13;;
24619;SDS011;12763;55.802;37.404;2023-04-24T06:49:12;19.77;;;8.95;;
24619;SDS011;12763;55.802;37.404;2023-04-24T06:51:41;19.92;;;9.30;;
24619;SDS011;12763;55.802;37.404;2023-04-24T06:54:07;22.42;;;9.25;;
24619;SDS011;12763;55.802;37.404;2023-04-24T06:56:32;21.23;;;8.68;;
24619;SDS011;12763;55.802;37.404;2023-04-24T06:58:59;10.52;;;6.13;;
24619;SDS011;12763;55.802;37.404;2023-04-24T07:01:25;18.88;;;6.63;;
24619;SDS011;12763;55.802;37.404;2023-04-24T07:03:51;18.08;;;6.97;;
24619;SDS011;12763;55.802;37.404;2023-04-24T07:06:17;20.83;;;6.07;;
24619;SDS011;12763;55.802;37.404;2023-04-24T07:08:43;12.48;;;6.25;;
24619;SDS011;12763;55.802;37.404;2023-04-24T07:11:09;18.45;;;6.07;;
24619;SDS011;12763;55.802;37.404;2023-04-24T07:13:35;7.90;;;5.03;;
24619;SDS011;12763;55.802;37.404;2023-04-24T07:16:01;11.90;;;5.45;;
24619;SDS011;12763;55.802;37.404;2023-04-24T07:18:27;11.00;;;5.93;;
24619;SDS011;12763;55.802;37.404;2023-04-24T07:20:53;10.27;;;5.28;;
24619;SDS011;12763;55.802;37.404;2023-04-24T07:23:19;9.75;;;5.50;;
24619;SDS011;12763;55.802;37.404;2023-04-24T07:25:45;12.18;;;5.25;;
24619;SDS011;12763;55.802;37.404;2023-04-24T07:28:12;8.85;;;5.50;;
24619;SDS011;12763;55.802;37.404;2023-04-24T07:30:38;16.17;;;5.38;;
24619;SDS011;12763;55.802;37.404;2023-04-24T07:33:04;9.25;;;4.97;;
24619;SDS011;12763;55.802;37.404;2023-04-24T07:35:32;8.93;;;5.07;;
24619;SDS011;12763;55.802;37.404;2023-04-24T07:37:59;11.93;;;5.30;;
24619;SDS011;12763;55.802;37.404;2023-04-24T07:40:25;10.73;;;5.20;;
24619;SDS011;12763;55.802;37.404;2023-04-24T07:42:51;13.20;;;5.63;;
24619;SDS011;12763;55.802;37.404;2023-04-24T07:45:17;15.85;;;5.57;;
24619;SDS011;12763;55.802;37.404;2023-04-24T07:47:43;9.60;;;4.88;;
24619;SDS011;12763;55.802;37.404;2023-04-24T07:50:11;9.10;;;4.90;;
24619;SDS011;12763;55.802;37.404;2023-04-24T07:52:38;7.50;;;4.78;;
24619;SDS011;12763;55.802;37.404;2023-04-24T07:55:04;11.13;;;5.00;;
24619;SDS011;12763;55.802;37.404;2023-04-24T07:57:32;14.48;;;5.38;;
24619;SDS011;12763;55.802;37.404;2023-04-24T07:59:58;10.75;;;4.90;;
24619;SDS011;12763;55.802;37.404;2023-04-24T08:02:23;11.27;;;5.25;;
24619;SDS011;12763;55.802;37.404;2023-04-24T08:04:54;8.98;;;4.68;;
24619;SDS011;12763;55.802;37.404;2023-04-24T08:07:21;8.70;;;4.97;;
24619;SDS011;12763;55.802;37.404;2023-04-24T08:09:47;7.63;;;4.80;;
24619;SDS011;12763;55.802;37.404;2023-04-24T08:12:13;12.02;;;4.82;;
24619;SDS011;12763;55.802;37.404;2023-04-24T08:14:38;7.75;;;4.65;;
24619;SDS011;12763;55.802;37.404;2023-04-24T08:17:04;7.00;;;4.80;;
24619;SDS011;12763;55.802;37.404;2023-04-24T08:19:30;7.05;;;4.80;;
24619;SDS011;12763;55.802;37.404;2023-04-24T08:21:56;11.27;;;6.03;;
24619;SDS011;12763;55.802;37.404;2023-04-24T08:24:22;8.82;;;5.40;;
24619;SDS011;12763;55.802;37.404;2023-04-24T08:26:48;11.70;;;5.15;;
24619;SDS011;12763;55.802;37.404;2023-04-24T08:29:19;10.40;;;5.55;;
24619;SDS011;12763;55.802;37.404;2023-04-24T08:31:46;6.45;;;4.25;;
24619;SDS011;12763;55.802;37.404;2023-04-24T08:34:11;8.70;;;4.72;;
24619;SDS011;12763;55.802;37.404;2023-04-24T08:36:37;9.70;;;5.00;;
24619;SDS011;12763;55.802;37.404;2023-04-24T08:39:03;11.63;;;4.88;;
24619;SDS011;12763;55.802;37.404;2023-04-24T08:41:29;10.30;;;5.28;;
24619;SDS011;12763;55.802;37.404;2023-04-24T08:43:56;11.05;;;5.07;;
24619;SDS011;12763;55.802;37.404;2023-04-24T08:46:24;8.25;;;4.88;;
24619;SDS011;12763;55.802;37.404;2023-04-24T08:48:50;9.02;;;5.15;;
24619;SDS011;12763;55.802;37.404;2023-04-24T08:51:17;8.48;;;5.00;;
24619;SDS011;12763;55.802;37.404;2023-04-24T08:53:43;6.57;;;4.80;;
24619;SDS011;12763;55.802;37.404;2023-04-24T08:56:11;7.45;;;4.65;;
24619;SDS011;12763;55.802;37.404;2023-04-24T08:58:37;13.00;;;5.40;;
24619;SDS011;12763;55.802;37.404;2023-04-24T09:01:04;8.65;;;4.38;;
24619;SDS011;12763;55.802;37.404;2023-04-24T09:03:30;9.45;;;5.80;;
24619;SDS011;12763;55.802;37.404;2023-04-24T09:05:56;7.32;;;5.05;;
24619;SDS011;12763;55.802;37.404;2023-04-24T09:08:24;11.57;;;5.50;;
24619;SDS011;12763;55.802;37.404;2023-04-24T09:10:51;12.10;;;5.30;;
24619;SDS011;12763;55.802;37.404;2023-04-24T09:13:18;9.13;;;5.53;;
24619;SDS011;12763;55.802;37.404;2023-04-24T09:15:45;10.98;;;5.07;;
24619;SDS011;12763;55.802;37.404;2023-04-24T09:18:11;8.23;;;4.82;;
24619;SDS011;12763;55.802;37.404;2023-04-24T09:23:27;9.55;;;5.38;;
24619;SDS011;12763;55.802;37.404;2023-04-24T09:25:56;8.98;;;5.18;;
24619;SDS011;12763;55.802;37.404;2023-04-24T09:33:56;9.02;;;4.72;;
24619;SDS011;12763;55.802;37.404;2023-04-24T09:36:28;7.47;;;5.10;;
24619;SDS011;12763;55.802;37.404;2023-04-24T09:39:07;8.68;;;4.43;;
24619;SDS011;12763;55.802;37.404;2023-04-24T09:41:44;7.93;;;4.75;;
24619;SDS011;12763;55.802;37.404;2023-04-24T09:44:12;8.00;;;4.63;;
24619;SDS011;12763;55.802;37.404;2023-04-24T09:46:41;7.63;;;4.50;;
24619;SDS011;12763;55.802;37.404;2023-04-24T09:49:08;8.23;;;4.65;;
24619;SDS011;12763;55.802;37.404;2023-04-24T09:51:37;8.57;;;4.90;;
24619;SDS011;12763;55.802;37.404;2023-04-24T09:54:04;8.00;;;5.45;;
24619;SDS011;12763;55.802;37.404;2023-04-24T09:56:36;9.10;;;5.18;;
24619;SDS011;12763;55.802;37.404;2023-04-24T09:59:05;7.63;;;5.28;;
24619;SDS011;12763;55.802;37.404;2023-04-24T10:01:32;7.50;;;5.03;;
24619;SDS011;12763;55.802;37.404;2023-04-24T10:03:58;8.38;;;4.82;;
24619;SDS011;12763;55.802;37.404;2023-04-24T10:06:32;12.70;;;4.53;;
24619;SDS011;12763;55.802;37.404;2023-04-24T10:08:59;8.83;;;4.90;;
24619;SDS011;12763;55.802;37.404;2023-04-24T10:11:28;9.55;;;5.40;;
24619;SDS011;12763;55.802;37.404;2023-04-24T10:13:55;5.95;;;3.92;;
24619;SDS011;12763;55.802;37.404;2023-04-24T10:16:23;10.88;;;4.65;;
24619;SDS011;12763;55.802;37.404;2023-04-24T10:18:49;6.03;;;4.53;;
24619;SDS011;12763;55.802;37.404;2023-04-24T10:21:16;9.10;;;4.97;;
24619;SDS011;12763;55.802;37.404;2023-04-24T10:23:42;6.80;;;4.80;;
24619;SDS011;12763;55.802;37.404;2023-04-24T10:26:09;11.98;;;5.57;;
24619;SDS011;12763;55.802;37.404;2023-04-24T10:28:36;11.40;;;4.82;;
24619;SDS011;12763;55.802;37.404;2023-04-24T10:31:02;6.55;;;4.38;;
24619;SDS011;12763;55.802;37.404;2023-04-24T10:33:29;5.95;;;4.43;;
24619;SDS011;12763;55.802;37.404;2023-04-24T10:35:56;7.05;;;4.47;;
24619;SDS011;12763;55.802;37.404;2023-04-24T10:38:24;6.78;;;4.63;;
24619;SDS011;12763;55.802;37.404;2023-04-24T10:44:11;8.45;;;4.45;;
24619;SDS011;12763;55.802;37.404;2023-04-24T10:46:40;7.97;;;4.88;;
24619;SDS011;12763;55.802;37.404;2023-04-24T10:49:09;8.55;;;4.43;;
24619;SDS011;12763;55.802;37.404;2023-04-24T10:54:24;8.40;;;4.93;;
24619;SDS011;12763;55.802;37.404;2023-04-24T11:00:09;7.55;;;4.53;;
24619;SDS011;12763;55.802;37.404;2023-04-24T11:02:39;8.32;;;4.63;;
24619;SDS011;12763;55.802;37.404;2023-04-24T11:05:09;6.28;;;4.40;;
24619;SDS011;12763;55.802;37.404;2023-04-24T11:10:55;13.37;;;4.73;;
24619;SDS011;12763;55.802;37.404;2023-04-24T11:13:26;8.98;;;3.95;;
24619;SDS011;12763;55.802;37.404;2023-04-24T11:16:14;8.73;;;4.53;;
24619;SDS011;12763;55.802;37.404;2023-04-24T11:18:41;5.97;;;4.32;;
24619;SDS011;12763;55.802;37.404;2023-04-24T11:21:11;6.45;;;4.68;;
24619;SDS011;12763;55.802;37.404;2023-04-24T11:23:38;7.07;;;4.65;;
24619;SDS011;12763;55.802;37.404;2023-04-24T11:26:38;21.42;;;4.45;;
24619;SDS011;12763;55.802;37.404;2023-04-24T11:29:07;8.60;;;4.72;;
24619;SDS011;12763;55.802;37.404;2023-04-24T11:31:34;14.57;;;5.18;;
24619;SDS011;12763;55.802;37.404;2023-04-24T11:34:11;9.50;;;4.75;;
24619;SDS011;12763;55.802;37.404;2023-04-24T11:36:39;7.88;;;5.05;;
24619;SDS011;12763;55.802;37.404;2023-04-24T11:39:08;7.70;;;3.95;;
24619;SDS011;12763;55.802;37.404;2023-04-24T11:41:34;5.63;;;3.85;;
24619;SDS011;12763;55.802;37.404;2023-04-24T11:44:00;8.25;;;4.70;;
24619;SDS011;12763;55.802;37.404;2023-04-24T11:46:28;6.43;;;4.45;;
24619;SDS011;12763;55.802;37.404;2023-04-24T11:48:55;8.50;;;4.85;;
24619;SDS011;12763;55.802;37.404;2023-04-24T11:51:22;6.75;;;3.80;;
24619;SDS011;12763;55.802;37.404;2023-04-24T11:53:50;9.35;;;4.03;;
24619;SDS011;12763;55.802;37.404;2023-04-24T11:56:17;5.65;;;3.85;;
24619;SDS011;12763;55.802;37.404;2023-04-24T11:58:45;9.00;;;4.10;;
24619;SDS011;12763;55.802;37.404;2023-04-24T12:01:12;8.27;;;4.15;;
24619;SDS011;12763;55.802;37.404;2023-04-24T12:03:38;10.02;;;4.22;;
24619;SDS011;12763;55.802;37.404;2023-04-24T12:06:07;7.03;;;3.80;;
24619;SDS011;12763;55.802;37.404;2023-04-24T12:08:34;4.65;;;3.63;;
24619;SDS011;12763;55.802;37.404;2023-04-24T12:11:00;8.90;;;4.50;;
24619;SDS011;12763;55.802;37.404;2023-04-24T12:13:27;6.90;;;4.25;;
24619;SDS011;12763;55.802;37.404;2023-04-24T12:15:53;7.00;;;4.28;;
24619;SDS011;12763;55.802;37.404;2023-04-24T12:18:22;6.60;;;3.90;;
24619;SDS011;12763;55.802;37.404;2023-04-24T12:20:48;9.80;;;4.05;;
24619;SDS011;12763;55.802;37.404;2023-04-24T12:23:14;6.38;;;3.67;;
24619;SDS011;12763;55.802;37.404;2023-04-24T12:25:39;6.38;;;4.28;;
24619;SDS011;12763;55.802;37.404;2023-04-24T12:30:34;12.55;;;4.03;;
24619;SDS011;12763;55.802;37.404;2023-04-24T12:33:04;7.00;;;4.07;;
24619;SDS011;12763;55.802;37.404;2023-04-24T12:35:31;5.47;;;4.13;;
24619;SDS011;12763;55.802;37.404;2023-04-24T12:38:31;6.00;;;4.65;;
24619;SDS011;12763;55.802;37.404;2023-04-24T12:41:01;8.77;;;4.75;;
24619;SDS011;12763;55.802;37.404;2023-04-24T12:43:29;12.50;;;4.90;;
24619;SDS011;12763;55.802;37.404;2023-04-24T12:45:55;8.57;;;5.05;;
24619;SDS011;12763;55.802;37.404;2023-04-24T12:48:22;10.20;;;5.00;;
24619;SDS011;12763;55.802;37.404;2023-04-24T12:50:48;6.00;;;4.13;;
24619;SDS011;12763;55.802;37.404;2023-04-24T12:53:14;7.40;;;3.92;;
24619;SDS011;12763;55.802;37.404;2023-04-24T12:55:40;6.82;;;4.40;;
24619;SDS011;12763;55.802;37.404;2023-04-24T12:58:06;10.27;;;4.03;;
24619;SDS011;12763;55.802;37.404;2023-04-24T13:00:32;6.75;;;3.92;;
24619;SDS011;12763;55.802;37.404;2023-04-24T13:02:59;6.22;;;3.83;;
24619;SDS011;12763;55.802;37.404;2023-04-24T13:05:25;7.10;;;4.50;;
24619;SDS011;12763;55.802;37.404;2023-04-24T13:07:51;6.38;;;4.30;;
24619;SDS011;12763;55.802;37.404;2023-04-24T13:10:18;6.20;;;3.58;;
24619;SDS011;12763;55.802;37.404;2023-04-24T13:12:44;7.35;;;4.20;;
24619;SDS011;12763;55.802;37.404;2023-04-24T13:15:12;9.30;;;4.30;;
24619;SDS011;12763;55.802;37.404;2023-04-24T13:17:39;7.80;;;4.50;;
24619;SDS011;12763;55.802;37.404;2023-04-24T13:20:05;11.88;;;5.28;;
24619;SDS011;12763;55.802;37.404;2023-04-24T13:22:33;5.82;;;3.95;;
24619;SDS011;12763;55.802;37.404;2023-04-24T13:25:04;9.25;;;3.90;;
24619;SDS011;12763;55.802;37.404;2023-04-24T13:27:31;4.90;;;3.67;;
24619;SDS011;12763;55.802;37.404;2023-04-24T13:29:57;9.02;;;4.03;;
24619;SDS011;12763;55.802;37.404;2023-04-24T13:32:23;9.85;;;4.00;;
24619;SDS011;12763;55.802;37.404;2023-04-24T13:34:50;7.38;;;3.85;;
24619;SDS011;12763;55.802;37.404;2023-04-24T13:37:16;7.28;;;3.83;;
24619;SDS011;12763;55.802;37.404;2023-04-24T13:39:42;15.55;;;4.70;;
24619;SDS011;12763;55.802;37.404;2023-04-24T13:42:08;7.40;;;3.80;;
24619;SDS011;12763;55.802;37.404;2023-04-24T13:44:34;5.35;;;3.67;;
24619;SDS011;12763;55.802;37.404;2023-04-24T13:47:00;5.68;;;3.40;;
24619;SDS011;12763;55.802;37.404;2023-04-24T13:49:26;5.38;;;3.65;;
24619;SDS011;12763;55.802;37.404;2023-04-24T13:51:52;4.22;;;3.45;;
24619;SDS011;12763;55.802;37.404;2023-04-24T13:54:20;3.80;;;3.30;;
24619;SDS011;12763;55.802;37.404;2023-04-24T13:56:46;4.47;;;3.15;;
24619;SDS011;12763;55.802;37.404;2023-04-24T13:59:12;4.70;;;3.80;;
24619;SDS011;12763;55.802;37.404;2023-04-24T14:01:38;5.30;;;3.75;;
24619;SDS011;12763;55.802;37.404;2023-04-24T14:04:04;5.55;;;3.40;;
24619;SDS011;12763;55.802;37.404;2023-04-24T14:06:30;6.53;;;3.75;;
24619;SDS011;12763;55.802;37.404;2023-04-24T14:08:56;5.90;;;3.17;;
24619;SDS011;12763;55.802;37.404;2023-04-24T14:11:22;10.63;;;3.60;;
24619;SDS011;12763;55.802;37.404;2023-04-24T14:13:48;6.05;;;4.00;;
24619;SDS011;12763;55.802;37.404;2023-04-24T14:16:15;7.00;;;4.18;;
24619;SDS011;12763;55.802;37.404;2023-04-24T14:18:40;7.72;;;3.50;;
24619;SDS011;12763;55.802;37.404;2023-04-24T14:21:06;8.73;;;4.07;;
24619;SDS011;12763;55.802;37.404;2023-04-24T14:23:32;5.05;;;3.72;;
24619;SDS011;12763;55.802;37.404;2023-04-24T14:25:58;10.52;;;4.40;;
24619;SDS011;12763;55.802;37.404;2023-04-24T14:28:25;9.35;;;4.00;;
24619;SDS011;12763;55.802;37.404;2023-04-24T14:30:52;4.82;;;3.30;;
24619;SDS011;12763;55.802;37.404;2023-04-24T14:33:18;6.72;;;3.80;;
24619;SDS011;12763;55.802;37.404;2023-04-24T14:35:45;5.88;;;3.90;;
24619;SDS011;12763;55.802;37.404;2023-04-24T14:38:11;4.60;;;3.78;;
24619;SDS011;12763;55.802;37.404;2023-04-24T14:40:37;4.95;;;3.28;;
24619;SDS011;12763;55.802;37.404;2023-04-24T14:43:03;5.28;;;3.65;;
24619;SDS011;12763;55.802;37.404;2023-04-24T14:45:30;5.28;;;3.38;;
24619;SDS011;12763;55.802;37.404;2023-04-24T14:47:55;3.85;;;3.28;;
24619;SDS011;12763;55.802;37.404;2023-04-24T14:50:22;4.82;;;3.30;;